Time;durP1;ratioP1;P1;durP2;ratioP2;P2;SDS_P1;SDS_P2;PMS_P1;PMS_P2;Temp;Humidity;BMP_temperature;BMP_pressure;BME280_temperature;BME280_humidity;BME280_pressure;Samples;Min_cycle;Max_cycle;Signal;HPM_P1;HPM_P2
2023/07/30 00:02:06;;;;;;;;;;;;;;;;;;5091054;28;877;-70
2023/07/30 00:04:32;;;;;;;;;;;;;;;;;;5091814;28;1006;-70
2023/07/30 00:06:57;;;;;;;;;;;;;;;;;;5090108;28;888;-70
2023/07/30 00:09:22;;;;;;;;;;;;;;;;;;5092294;28;895;-70
2023/07/30 00:11:48;;;;;;;;;;;;;;;;;;5091377;28;824;-70
2023/07/30 00:14:13;;;;;;;;;;;;;;;;;;5090960;28;1955;-70
2023/07/30 00:16:38;;;;;;;;;;;;;;;;;;5090431;28;903;-70
2023/07/30 00:19:04;;;;;;;;;;;;;;;;;;5089466;28;1312;-70
2023/07/30 00:21:29;;;;;;;;;;;;;;;;;;5089818;28;1066;-70
2023/07/30 00:23:54;;;;;;;;;;;;;;;;;;5090904;28;907;-70
2023/07/30 00:26:20;;;;;;;;;;;;;;;;;;5091209;28;1207;-70
2023/07/30 00:28:45;;;;;;;;;;;;;;;;;;5091066;28;819;-70
2023/07/30 00:31:10;;;;;;;;;;;;;;;;;;5090147;28;1222;-70
2023/07/30 00:33:35;;;;;;;;;;;;;;;;;;5091037;28;1905;-70
2023/07/30 00:36:01;;;;;;;;;;;;;;;;;;5090904;28;812;-71
2023/07/30 00:38:26;;;;;;;;;;;;;;;;;;5090824;28;986;-70
2023/07/30 00:40:51;;;;;;;;;;;;;;;;;;5091209;28;914;-70
2023/07/30 00:43:16;;;;;;;;;;;;;;;;;;5090479;28;837;-70
2023/07/30 00:45:43;;;;;;;;;;;;;;;;;;5091069;28;1069;-70
2023/07/30 00:48:09;;;;;;;;;;;;;;;;;;5092490;28;808;-70
2023/07/30 00:50:35;;;;;;;;;;;;;;;;;;5094451;28;931;-71
2023/07/30 00:53:00;;;;;;;;;;;;;;;;;;5093672;28;1949;-71
2023/07/30 00:55:25;;;;;;;;;;;;;;;;;;5094893;28;880;-71
2023/07/30 00:57:51;;;;;;;;;;;;;;;;;;5094285;28;920;-70
2023/07/30 01:00:17;;;;;;;;;;;;;;;;;;5094883;28;992;-70
2023/07/30 01:02:42;;;;;;;;;;;;;;;;;;5095032;28;982;-70
2023/07/30 01:05:07;;;;;;;;;;;;;;;;;;5094205;28;911;-70
2023/07/30 01:07:33;;;;;;;;;;;;;;;;;;5094642;28;899;-70
2023/07/30 01:10:02;;;;;;;;;;;;;;;;;;5076730;28;1243;-70
2023/07/30 01:12:29;;;;;;;;;;;;;;;;;;5094802;28;1944;-70
2023/07/30 01:14:55;;;;;;;;;;;;;;;;;;5094232;28;892;-71
2023/07/30 01:17:21;;;;;;;;;;;;;;;;;;5094264;28;880;-70
2023/07/30 01:19:47;;;;;;;;;;;;;;;;;;5094212;28;899;-71
2023/07/30 01:22:12;;;;;;;;;;;;;;;;;;5092541;28;1687;-70
2023/07/30 01:24:38;;;;;;;;;;;;;;;;;;5093031;28;1007;-71
2023/07/30 01:27:06;;;;;;;;;;;;;;;;;;5093986;28;1343;-71
2023/07/30 01:29:50;;;;;;;;;;;;;;;;;;5094173;28;804;-71
2023/07/30 01:32:16;;;;;;;;;;;;;;;;;;5093923;28;913;-71
2023/07/30 01:34:43;;;;;;;;;;;;;;;;;;5092599;28;1959;-70
2023/07/30 01:37:12;;;;;;;;;;;;;;;;;;5093448;28;1196;-70
2023/07/30 01:39:39;;;;;;;;;;;;;;;;;;5093981;28;808;-70
2023/07/30 01:42:04;;;;;;;;;;;;;;;;;;5093451;28;836;-70
2023/07/30 01:44:29;;;;;;;;;;;;;;;;;;5093271;28;1090;-70
2023/07/30 01:46:55;;;;;;;;;;;;;;;;;;5093520;28;1019;-70
2023/07/30 01:49:20;;;;;;;;;;;;;;;;;;5093278;28;887;-70
2023/07/30 01:51:45;;;;;;;;;;;;;;;;;;5093686;28;835;-70
2023/07/30 01:54:11;;;;;;;;;;;;;;;;;;5093042;28;1960;-70
2023/07/30 01:56:36;;;;;;;;;;;;;;;;;;5093719;28;821;-70
2023/07/30 01:59:01;;;;;;;;;;;;;;;;;;5091811;28;897;-70
2023/07/30 02:01:26;;;;;;;;;;;;;;;;;;5093012;28;978;-70
2023/07/30 02:03:52;;;;;;;;;;;;;;;;;;5093000;28;1006;-70
2023/07/30 02:06:17;;;;;;;;;;;;;;;;;;5092409;28;920;-70
2023/07/30 02:08:42;;;;;;;;;;;;;;;;;;5093164;28;1341;-70
2023/07/30 02:11:07;;;;;;;;;;;;;;;;;;5092353;28;919;-69
2023/07/30 02:13:33;;;;;;;;;;;;;;;;;;5092488;28;1901;-71
2023/07/30 02:15:58;;;;;;;;;;;;;;;;;;5092303;28;868;-70
2023/07/30 02:18:23;;;;;;;;;;;;;;;;;;5092987;28;1293;-69
2023/07/30 02:20:48;;;;;;;;;;;;;;;;;;5093218;28;859;-70
2023/07/30 02:23:16;;;;;;;;;;;;;;;;;;5092181;28;836;-70
2023/07/30 02:25:41;;;;;;;;;;;;;;;;;;5092507;28;1183;-69
2023/07/30 02:28:06;;;;;;;;;;;;;;;;;;5092442;28;896;-70
2023/07/30 02:30:32;;;;;;;;;;;;;;;;;;5091678;28;828;-70
2023/07/30 02:32:58;;;;;;;;;;;;;;;;;;5092046;28;1978;-69
2023/07/30 02:35:23;;;;;;;;;;;;;;;;;;5092678;28;891;-69
2023/07/30 02:37:48;;;;;;;;;;;;;;;;;;5092844;28;1088;-69
2023/07/30 02:40:14;;;;;;;;;;;;;;;;;;5093061;28;840;-70
2023/07/30 02:42:39;;;;;;;;;;;;;;;;;;5092323;28;875;-69
2023/07/30 02:45:05;;;;;;;;;;;;;;;;;;5092421;28;945;-69
2023/07/30 02:47:30;;;;;;;;;;;;;;;;;;5091477;28;860;-69
2023/07/30 02:49:55;;;;;;;;;;;;;;;;;;5092480;28;1054;-70
2023/07/30 02:52:20;;;;;;;;;;;;;;;;;;5090559;28;1085;-70
2023/07/30 02:54:46;;;;;;;;;;;;;;;;;;5092117;28;1953;-70
2023/07/30 02:57:12;;;;;;;;;;;;;;;;;;5092098;28;903;-70
2023/07/30 02:59:38;;;;;;;;;;;;;;;;;;5092615;28;1127;-69
2023/07/30 03:02:05;;;;;;;;;;;;;;;;;;5091849;28;839;-69
2023/07/30 03:04:30;;;;;;;;;;;;;;;;;;5092356;28;856;-69
2023/07/30 03:06:55;;;;;;;;;;;;;;;;;;5092234;28;1061;-70
2023/07/30 03:09:21;;;;;;;;;;;;;;;;;;5090754;28;840;-70
2023/07/30 03:11:46;;;;;;;;;;;;;;;;;;5092215;28;874;-70
2023/07/30 03:14:11;;;;;;;;;;;;;;;;;;5092422;28;1955;-70
2023/07/30 03:16:37;;;;;;;;;;;;;;;;;;5091308;28;920;-69
2023/07/30 03:19:02;;;;;;;;;;;;;;;;;;5090465;28;1285;-70
2023/07/30 03:21:27;;;;;;;;;;;;;;;;;;5092205;28;876;-70
2023/07/30 03:23:52;;;;;;;;;;;;;;;;;;5091174;28;1235;-70
2023/07/30 03:26:18;;;;;;;;;;;;;;;;;;5091807;28;1213;-69
2023/07/30 03:28:43;;;;;;;;;;;;;;;;;;5091656;28;954;-69
2023/07/30 03:31:08;;;;;;;;;;;;;;;;;;5091232;28;875;-69
2023/07/30 03:33:34;;;;;;;;;;;;;;;;;;5091076;28;1922;-70
2023/07/30 03:35:59;;;;;;;;;;;;;;;;;;5092268;28;816;-69
2023/07/30 03:38:25;;;;;;;;;;;;;;;;;;5091941;28;872;-70
2023/07/30 03:40:50;;;;;;;;;;;;;;;;;;5091644;28;856;-69
2023/07/30 03:43:15;;;;;;;;;;;;;;;;;;5089675;28;836;-70
2023/07/30 03:45:40;;;;;;;;;;;;;;;;;;5089964;28;844;-70
2023/07/30 03:48:06;;;;;;;;;;;;;;;;;;5090784;28;975;-69
2023/07/30 03:50:31;;;;;;;;;;;;;;;;;;5091794;28;920;-70
2023/07/30 03:52:57;;;;;;;;;;;;;;;;;;5091562;28;1898;-69
2023/07/30 03:55:23;;;;;;;;;;;;;;;;;;5090845;28;888;-70
2023/07/30 03:57:48;;;;;;;;;;;;;;;;;;5091397;28;887;-70
2023/07/30 04:00:13;;;;;;;;;;;;;;;;;;5090658;28;953;-70
2023/07/30 04:02:38;;;;;;;;;;;;;;;;;;5091494;28;927;-70
2023/07/30 04:05:04;;;;;;;;;;;;;;;;;;5090541;28;1015;-70
2023/07/30 04:07:29;;;;;;;;;;;;;;;;;;5091406;28;852;-69
2023/07/30 04:09:54;;;;;;;;;;;;;;;;;;5091648;28;891;-70
2023/07/30 04:12:21;;;;;;;;;;;;;;;;;;5091226;28;943;-70
2023/07/30 04:14:46;;;;;;;;;;;;;;;;;;5091018;28;1959;-70
2023/07/30 04:17:11;;;;;;;;;;;;;;;;;;5091040;28;832;-70
2023/07/30 04:19:37;;;;;;;;;;;;;;;;;;5091105;28;955;-70
2023/07/30 04:22:02;;;;;;;;;;;;;;;;;;5091614;28;934;-70
2023/07/30 04:24:27;;;;;;;;;;;;;;;;;;5076903;28;1435;-70
2023/07/30 04:26:53;;;;;;;;;;;;;;;;;;5077166;28;2042;-70
2023/07/30 04:29:18;;;;;;;;;;;;;;;;;;5095130;28;852;-70
2023/07/30 04:31:43;;;;;;;;;;;;;;;;;;5095104;28;943;-70
2023/07/30 04:34:08;;;;;;;;;;;;;;;;;;5095159;28;1981;-70
2023/07/30 04:36:34;;;;;;;;;;;;;;;;;;5095198;28;840;-70
2023/07/30 04:38:59;;;;;;;;;;;;;;;;;;5095553;28;895;-71
2023/07/30 04:41:24;;;;;;;;;;;;;;;;;;5094742;28;883;-70
2023/07/30 04:43:49;;;;;;;;;;;;;;;;;;5094828;28;959;-70
2023/07/30 04:46:15;;;;;;;;;;;;;;;;;;5092924;28;916;-70
2023/07/30 04:48:40;;;;;;;;;;;;;;;;;;5094431;28;883;-70
2023/07/30 04:51:06;;;;;;;;;;;;;;;;;;5094074;28;955;-70
2023/07/30 04:53:31;;;;;;;;;;;;;;;;;;5094526;28;1933;-70
2023/07/30 04:55:57;;;;;;;;;;;;;;;;;;5093389;28;860;-70
2023/07/30 04:58:22;;;;;;;;;;;;;;;;;;5092682;28;1539;-70
2023/07/30 05:00:48;;;;;;;;;;;;;;;;;;5093929;28;1009;-70
2023/07/30 05:03:14;;;;;;;;;;;;;;;;;;5094439;28;828;-70
2023/07/30 05:05:39;;;;;;;;;;;;;;;;;;5094741;28;852;-70
2023/07/30 05:08:04;;;;;;;;;;;;;;;;;;5093762;28;879;-70
2023/07/30 05:10:29;;;;;;;;;;;;;;;;;;5094895;28;923;-70
2023/07/30 05:12:55;;;;;;;;;;;;;;;;;;5094528;28;1978;-70
2023/07/30 05:15:20;;;;;;;;;;;;;;;;;;5094531;28;1045;-70
2023/07/30 05:17:45;;;;;;;;;;;;;;;;;;5094770;28;892;-70
2023/07/30 05:20:11;;;;;;;;;;;;;;;;;;5094746;28;955;-70
2023/07/30 05:22:36;;;;;;;;;;;;;;;;;;5094307;28;876;-70
2023/07/30 05:25:01;;;;;;;;;;;;;;;;;;5093817;28;1025;-70
2023/07/30 05:27:28;;;;;;;;;;;;;;;;;;5093968;28;842;-70
2023/07/30 05:29:54;;;;;;;;;;;;;;;;;;5094013;28;828;-70
2023/07/30 05:32:19;;;;;;;;;;;;;;;;;;5093855;28;899;-70
2023/07/30 05:34:44;;;;;;;;;;;;;;;;;;5093772;28;1971;-70
2023/07/30 05:37:09;;;;;;;;;;;;;;;;;;5093359;28;1014;-70
2023/07/30 05:39:34;;;;;;;;;;;;;;;;;;5093767;28;844;-70
2023/07/30 05:42:00;;;;;;;;;;;;;;;;;;5093729;28;911;-70
2023/07/30 05:44:25;;;;;;;;;;;;;;;;;;5093478;28;1050;-70
2023/07/30 05:46:50;;;;;;;;;;;;;;;;;;5092296;28;876;-70
2023/07/30 05:49:16;;;;;;;;;;;;;;;;;;5092223;28;1334;-70
2023/07/30 05:51:41;;;;;;;;;;;;;;;;;;5093426;28;900;-70
2023/07/30 05:54:06;;;;;;;;;;;;;;;;;;5093057;28;1930;-70
2023/07/30 05:56:31;;;;;;;;;;;;;;;;;;5093875;28;911;-70
2023/07/30 05:58:56;;;;;;;;;;;;;;;;;;5093407;28;903;-70
2023/07/30 06:01:22;;;;;;;;;;;;;;;;;;5092974;28;879;-70
2023/07/30 06:03:47;;;;;;;;;;;;;;;;;;5093234;28;911;-70
2023/07/30 06:06:12;;;;;;;;;;;;;;;;;;5093040;28;939;-70
2023/07/30 06:08:37;;;;;;;;;;;;;;;;;;5093083;28;986;-70
2023/07/30 06:11:05;;;;;;;;;;;;;;;;;;5093145;28;828;-70
2023/07/30 06:13:31;;;;;;;;;;;;;;;;;;5091947;28;1964;-70
2023/07/30 06:15:56;;;;;;;;;;;;;;;;;;5093337;28;871;-70
2023/07/30 06:18:21;;;;;;;;;;;;;;;;;;5092832;28;891;-70
2023/07/30 06:20:46;;;;;;;;;;;;;;;;;;5093056;28;959;-70
2023/07/30 06:23:12;;;;;;;;;;;;;;;;;;5092405;28;847;-70
2023/07/30 06:25:37;;;;;;;;;;;;;;;;;;5092378;28;1267;-70
2023/07/30 06:28:03;;;;;;;;;;;;;;;;;;5092382;28;895;-70
2023/07/30 06:30:28;;;;;;;;;;;;;;;;;;5074477;28;852;-70
2023/07/30 06:32:53;;;;;;;;;;;;;;;;;;5092355;28;1985;-70
2023/07/30 06:35:19;;;;;;;;;;;;;;;;;;5090990;28;950;-70
2023/07/30 06:37:44;;;;;;;;;;;;;;;;;;5092788;28;867;-70
2023/07/30 06:40:09;;;;;;;;;;;;;;;;;;5091683;28;821;-70
2023/07/30 06:42:34;;;;;;;;;;;;;;;;;;5093386;28;1205;-70
2023/07/30 06:45:00;;;;;;;;;;;;;;;;;;5091849;28;848;-70
2023/07/30 06:47:25;;;;;;;;;;;;;;;;;;5091900;28;1384;-70
2023/07/30 06:49:50;;;;;;;;;;;;;;;;;;5092957;28;880;-70
2023/07/30 06:52:15;;;;;;;;;;;;;;;;;;5092963;28;864;-70
2023/07/30 06:54:41;;;;;;;;;;;;;;;;;;5089532;28;1897;-70
2023/07/30 06:57:06;;;;;;;;;;;;;;;;;;5087512;28;1286;-70
2023/07/30 06:59:33;;;;;;;;;;;;;;;;;;5071764;28;1167;-70
2023/07/30 07:01:59;;;;;;;;;;;;;;;;;;5079184;28;1226;-70
2023/07/30 07:04:24;;;;;;;;;;;;;;;;;;5086771;28;1159;-70
2023/07/30 07:06:49;;;;;;;;;;;;;;;;;;5078912;28;1167;-70
2023/07/30 07:09:15;;;;;;;;;;;;;;;;;;5076595;28;1206;-70
2023/07/30 07:11:40;;;;;;;;;;;;;;;;;;5071243;28;1238;-70
2023/07/30 07:14:05;;;;;;;;;;;;;;;;;;5071168;28;1898;-70
2023/07/30 07:16:30;;;;;;;;;;;;;;;;;;5071389;28;958;-70
2023/07/30 07:18:56;;;;;;;;;;;;;;;;;;5071297;28;915;-71
2023/07/30 07:21:21;;;;;;;;;;;;;;;;;;5070855;28;908;-71
2023/07/30 07:23:47;;;;;;;;;;;;;;;;;;5071360;28;833;-72
2023/07/30 07:26:12;;;;;;;;;;;;;;;;;;5070665;28;1260;-71
2023/07/30 07:28:37;;;;;;;;;;;;;;;;;;5071385;28;970;-71
2023/07/30 07:31:03;;;;;;;;;;;;;;;;;;5071604;28;1258;-71
2023/07/30 07:33:28;;;;;;;;;;;;;;;;;;5071094;28;1901;-72
2023/07/30 07:36:04;;;;;;;;;;;;;;;;;;5071436;28;990;-72
2023/07/30 07:38:29;;;;;;;;;;;;;;;;;;5071248;28;856;-73
2023/07/30 07:40:54;;;;;;;;;;;;;;;;;;5071104;28;877;-71
2023/07/30 07:43:19;;;;;;;;;;;;;;;;;;5069731;28;828;-71
2023/07/30 07:45:45;;;;;;;;;;;;;;;;;;5071281;28;1054;-71
2023/07/30 07:48:10;;;;;;;;;;;;;;;;;;5070476;28;845;-71
2023/07/30 07:50:35;;;;;;;;;;;;;;;;;;5071388;28;920;-71
2023/07/30 07:53:00;;;;;;;;;;;;;;;;;;5069462;28;1898;-71
2023/07/30 07:55:26;;;;;;;;;;;;;;;;;;5070799;28;879;-71
2023/07/30 07:57:51;;;;;;;;;;;;;;;;;;5071241;28;1293;-71
2023/07/30 08:00:17;;;;;;;;;;;;;;;;;;5072794;28;1337;-72
2023/07/30 08:02:42;;;;;;;;;;;;;;;;;;5074837;28;1033;-72
2023/07/30 08:05:08;;;;;;;;;;;;;;;;;;5073938;28;1030;-72
2023/07/30 08:07:33;;;;;;;;;;;;;;;;;;5073086;28;1296;-72
2023/07/30 08:09:58;;;;;;;;;;;;;;;;;;5074599;28;824;-72
2023/07/30 08:12:23;;;;;;;;;;;;;;;;;;5074326;28;1052;-72
2023/07/30 08:14:49;;;;;;;;;;;;;;;;;;5074308;28;1953;-72
2023/07/30 08:17:14;;;;;;;;;;;;;;;;;;5072881;28;856;-72
2023/07/30 08:19:40;;;;;;;;;;;;;;;;;;5074132;28;891;-72
2023/07/30 08:22:05;;;;;;;;;;;;;;;;;;5073684;28;860;-72
2023/07/30 08:24:30;;;;;;;;;;;;;;;;;;5074260;28;970;-72
2023/07/30 08:26:55;;;;;;;;;;;;;;;;;;5072698;28;1369;-72
2023/07/30 08:29:21;;;;;;;;;;;;;;;;;;5074345;28;917;-72
2023/07/30 08:31:46;;;;;;;;;;;;;;;;;;5074989;28;820;-73
2023/07/30 08:34:12;;;;;;;;;;;;;;;;;;5073973;28;1902;-72
2023/07/30 08:36:37;;;;;;;;;;;;;;;;;;5074454;28;900;-73
2023/07/30 08:39:03;;;;;;;;;;;;;;;;;;5073787;28;880;-72
2023/07/30 08:41:29;;;;;;;;;;;;;;;;;;5056854;28;1234;-72
2023/07/30 08:43:54;;;;;;;;;;;;;;;;;;5074463;28;947;-73
2023/07/30 08:46:19;;;;;;;;;;;;;;;;;;5072572;28;892;-73
2023/07/30 08:48:45;;;;;;;;;;;;;;;;;;5073325;28;908;-73
2023/07/30 08:51:11;;;;;;;;;;;;;;;;;;5072791;28;863;-73
2023/07/30 08:53:36;;;;;;;;;;;;;;;;;;5073824;28;1956;-72
2023/07/30 08:56:02;;;;;;;;;;;;;;;;;;5073757;28;820;-73
2023/07/30 08:58:28;;;;;;;;;;;;;;;;;;5072758;28;902;-72
2023/07/30 09:00:55;;;;;;;;;;;;;;;;;;5073951;28;898;-72
2023/07/30 09:03:21;;;;;;;;;;;;;;;;;;5072055;28;1637;-73
2023/07/30 09:05:47;;;;;;;;;;;;;;;;;;5073994;28;881;-73
2023/07/30 09:08:12;;;;;;;;;;;;;;;;;;5072762;28;880;-73
2023/07/30 09:10:37;;;;;;;;;;;;;;;;;;5072826;28;932;-73
2023/07/30 09:13:03;;;;;;;;;;;;;;;;;;5073010;28;1906;-72
2023/07/30 09:15:32;;;;;;;;;;;;;;;;;;5073899;28;950;-73
2023/07/30 09:17:57;;;;;;;;;;;;;;;;;;5072500;28;790;-73
2023/07/30 09:20:23;;;;;;;;;;;;;;;;;;5072323;28;916;-73
2023/07/30 09:22:49;;;;;;;;;;;;;;;;;;5073428;28;880;-73
2023/07/30 09:25:19;;;;;;;;;;;;;;;;;;5072017;28;795;-73
2023/07/30 09:27:47;;;;;;;;;;;;;;;;;;5071840;28;1240;-73
2023/07/30 09:30:12;;;;;;;;;;;;;;;;;;5073385;28;977;-73
2023/07/30 09:32:37;;;;;;;;;;;;;;;;;;5071895;28;1207;-73
2023/07/30 09:35:09;;;;;;;;;;;;;;;;;;5072880;28;1965;-73
2023/07/30 09:37:38;;;;;;;;;;;;;;;;;;5073327;28;986;-73
2023/07/30 09:40:07;;;;;;;;;;;;;;;;;;5072546;28;872;-73
2023/07/30 09:42:39;;;;;;;;;;;;;;;;;;5071119;28;805;-73
2023/07/30 09:45:04;;;;;;;;;;;;;;;;;;5072557;28;790;-73
2023/07/30 09:47:35;;;;;;;;;;;;;;;;;;5072064;28;890;-72
2023/07/30 09:50:00;;;;;;;;;;;;;;;;;;5072514;28;835;-73
2023/07/30 09:52:25;;;;;;;;;;;;;;;;;;5072391;28;836;-73
2023/07/30 09:54:52;;;;;;;;;;;;;;;;;;5072739;28;1898;-73
2023/07/30 09:57:17;;;;;;;;;;;;;;;;;;5071638;28;758;-72
2023/07/30 09:59:42;;;;;;;;;;;;;;;;;;5071143;28;926;-73
2023/07/30 10:02:10;;;;;;;;;;;;;;;;;;5071886;28;868;-73
2023/07/30 10:04:37;;;;;;;;;;;;;;;;;;5071934;28;907;-73
2023/07/30 10:07:08;;;;;;;;;;;;;;;;;;5072244;28;920;-73
2023/07/30 10:09:44;;;;;;;;;;;;;;;;;;5070252;28;1232;-72
2023/07/30 10:12:11;;;;;;;;;;;;;;;;;;5071726;28;868;-72
2023/07/30 10:14:36;;;;;;;;;;;;;;;;;;5071886;28;1910;-73
2023/07/30 10:17:02;;;;;;;;;;;;;;;;;;5071730;28;848;-73
2023/07/30 10:19:28;;;;;;;;;;;;;;;;;;5070110;28;824;-73
2023/07/30 10:22:12;;;;;;;;;;;;;;;;;;5071565;28;1003;-73
2023/07/30 10:24:37;;;;;;;;;;;;;;;;;;5071849;28;928;-73
2023/07/30 10:27:06;;;;;;;;;;;;;;;;;;5071617;28;1336;-73
2023/07/30 10:29:34;;;;;;;;;;;;;;;;;;5072480;28;1074;-73
2023/07/30 10:32:00;;;;;;;;;;;;;;;;;;5072488;28;923;-73
2023/07/30 10:34:27;;;;;;;;;;;;;;;;;;5070865;28;1913;-73
2023/07/30 10:36:54;;;;;;;;;;;;;;;;;;5071326;28;1250;-73
2023/07/30 10:39:27;;;;;;;;;;;;;;;;;;5072093;28;852;-73
2023/07/30 10:42:00;;;;;;;;;;;;;;;;;;5072559;28;1331;-73
2023/07/30 10:44:26;;;;;;;;;;;;;;;;;;5072219;28;891;-73
2023/07/30 10:46:53;;;;;;;;;;;;;;;;;;5072588;28;923;-73
2023/07/30 10:49:18;;;;;;;;;;;;;;;;;;5072161;28;884;-73
2023/07/30 10:51:43;;;;;;;;;;;;;;;;;;5072582;28;904;-73
2023/07/30 10:54:09;;;;;;;;;;;;;;;;;;5072311;28;1959;-73
2023/07/30 10:56:35;;;;;;;;;;;;;;;;;;5072603;28;864;-73
2023/07/30 10:59:02;;;;;;;;;;;;;;;;;;5073194;28;857;-73
2023/07/30 11:01:28;;;;;;;;;;;;;;;;;;5072574;28;900;-73
2023/07/30 11:03:53;;;;;;;;;;;;;;;;;;5074194;28;915;-72
2023/07/30 11:06:23;;;;;;;;;;;;;;;;;;5071938;28;837;-73
2023/07/30 11:08:48;;;;;;;;;;;;;;;;;;5072838;28;825;-73
2023/07/30 11:11:13;;;;;;;;;;;;;;;;;;5074718;28;987;-73
2023/07/30 11:13:42;;;;;;;;;;;;;;;;;;5075131;28;1902;-72
2023/07/30 11:16:08;;;;;;;;;;;;;;;;;;5073559;28;881;-73
2023/07/30 11:18:34;;;;;;;;;;;;;;;;;;5071341;28;848;-73
2023/07/30 11:21:10;;;;;;;;;;;;;;;;;;5071271;28;1401;-70
2023/07/30 11:23:36;;;;;;;;;;;;;;;;;;5069275;28;1027;-72
2023/07/30 11:26:02;;;;;;;;;;;;;;;;;;5070651;28;1389;-70
2023/07/30 11:28:32;;;;;;;;;;;;;;;;;;5069965;28;844;-72
2023/07/30 11:31:07;;;;;;;;;;;;;;;;;;5070575;28;844;-71
2023/07/30 11:33:35;;;;;;;;;;;;;;;;;;5070213;28;1973;-70
2023/07/30 11:36:00;;;;;;;;;;;;;;;;;;5070803;28;852;-71
2023/07/30 11:38:27;;;;;;;;;;;;;;;;;;5070478;28;1080;-70
2023/07/30 11:40:53;;;;;;;;;;;;;;;;;;5069503;28;1188;-70
2023/07/30 11:43:18;;;;;;;;;;;;;;;;;;5070303;28;967;-70
2023/07/30 11:45:44;;;;;;;;;;;;;;;;;;5069705;28;1238;-70
2023/07/30 11:48:10;;;;;;;;;;;;;;;;;;5070753;28;828;-71
2023/07/30 11:51:02;;;;;;;;;;;;;;;;;;5070390;28;1214;-71
2023/07/30 11:53:47;;;;;;;;;;;;;;;;;;5068600;28;1898;-70
2023/07/30 11:56:16;;;;;;;;;;;;;;;;;;5070371;28;896;-70
2023/07/30 11:58:41;;;;;;;;;;;;;;;;;;5070512;28;1056;-71
2023/07/30 12:01:06;;;;;;;;;;;;;;;;;;5070718;28;939;-70
2023/07/30 12:03:32;;;;;;;;;;;;;;;;;;5068871;28;1190;-70
2023/07/30 12:05:57;;;;;;;;;;;;;;;;;;5070284;28;912;-70
2023/07/30 12:08:26;;;;;;;;;;;;;;;;;;5068522;28;856;-70
2023/07/30 12:10:52;;;;;;;;;;;;;;;;;;5070582;28;903;-69
2023/07/30 12:13:18;;;;;;;;;;;;;;;;;;5068708;28;1890;-69
2023/07/30 12:15:44;;;;;;;;;;;;;;;;;;5068927;28;1360;-71
2023/07/30 12:18:09;;;;;;;;;;;;;;;;;;5069356;28;1006;-70
2023/07/30 12:20:34;;;;;;;;;;;;;;;;;;5069606;28;825;-70
2023/07/30 12:23:00;;;;;;;;;;;;;;;;;;5069446;28;1397;-70
2023/07/30 12:25:26;;;;;;;;;;;;;;;;;;5068362;28;1341;-69
2023/07/30 12:27:51;;;;;;;;;;;;;;;;;;5067430;28;1319;-69
2023/07/30 12:30:16;;;;;;;;;;;;;;;;;;5068571;28;869;-70
2023/07/30 12:32:42;;;;;;;;;;;;;;;;;;5067384;28;1061;-70
2023/07/30 12:35:07;;;;;;;;;;;;;;;;;;5069275;28;1890;-70
2023/07/30 12:37:35;;;;;;;;;;;;;;;;;;5067830;28;1499;-70
2023/07/30 12:40:00;;;;;;;;;;;;;;;;;;5069882;28;895;-70
2023/07/30 12:42:25;;;;;;;;;;;;;;;;;;5068354;28;1309;-70
2023/07/30 12:44:50;;;;;;;;;;;;;;;;;;5073070;28;1129;-70
2023/07/30 12:47:16;;;;;;;;;;;;;;;;;;5074209;28;1065;-70
2023/07/30 12:49:41;;;;;;;;;;;;;;;;;;5074720;28;829;-70
2023/07/30 12:52:06;;;;;;;;;;;;;;;;;;5072885;28;987;-70
2023/07/30 12:54:32;;;;;;;;;;;;;;;;;;5073206;28;1955;-70
2023/07/30 12:56:57;;;;;;;;;;;;;;;;;;5074056;28;832;-70
2023/07/30 12:59:23;;;;;;;;;;;;;;;;;;5071605;28;1048;-70
2023/07/30 13:01:48;;;;;;;;;;;;;;;;;;5073490;28;861;-70
2023/07/30 13:04:13;;;;;;;;;;;;;;;;;;5073070;28;1002;-70
2023/07/30 13:06:39;;;;;;;;;;;;;;;;;;5073039;28;797;-70
2023/07/30 13:09:04;;;;;;;;;;;;;;;;;;5073253;28;880;-70
2023/07/30 13:11:29;;;;;;;;;;;;;;;;;;5073178;28;777;-70
2023/07/30 13:13:54;;;;;;;;;;;;;;;;;;5073551;28;1898;-70
2023/07/30 13:16:20;;;;;;;;;;;;;;;;;;5073026;28;1070;-70
2023/07/30 13:18:45;;;;;;;;;;;;;;;;;;5073178;28;1009;-70
2023/07/30 13:21:10;;;;;;;;;;;;;;;;;;5071654;28;896;-70
2023/07/30 13:23:35;;;;;;;;;;;;;;;;;;5071315;28;1183;-70
2023/07/30 13:26:02;;;;;;;;;;;;;;;;;;5071640;28;2497;-71
2023/07/30 13:28:28;;;;;;;;;;;;;;;;;;5071112;28;1414;-70
2023/07/30 13:30:53;;;;;;;;;;;;;;;;;;5072524;28;894;-70
2023/07/30 13:33:18;;;;;;;;;;;;;;;;;;5072359;28;1955;-70
2023/07/30 13:35:44;;;;;;;;;;;;;;;;;;5072850;28;883;-70
2023/07/30 13:38:09;;;;;;;;;;;;;;;;;;5071464;28;1400;-70
2023/07/30 13:40:35;;;;;;;;;;;;;;;;;;5071098;28;970;-70
2023/07/30 13:43:00;;;;;;;;;;;;;;;;;;5073103;28;832;-70
2023/07/30 13:45:25;;;;;;;;;;;;;;;;;;5072320;28;896;-70
2023/07/30 13:47:51;;;;;;;;;;;;;;;;;;5073645;28;817;-70
2023/07/30 13:50:16;;;;;;;;;;;;;;;;;;5072174;28;841;-70
2023/07/30 13:52:43;;;;;;;;;;;;;;;;;;5072600;28;885;-70
2023/07/30 13:55:08;;;;;;;;;;;;;;;;;;5071342;28;1941;-71
2023/07/30 13:57:33;;;;;;;;;;;;;;;;;;5071857;28;915;-71
2023/07/30 13:59:59;;;;;;;;;;;;;;;;;;5073102;28;925;-71
2023/07/30 14:02:24;;;;;;;;;;;;;;;;;;5071098;28;1416;-71
2023/07/30 14:04:49;;;;;;;;;;;;;;;;;;5055195;28;1124;-70
2023/07/30 14:07:14;;;;;;;;;;;;;;;;;;5073118;28;809;-71
2023/07/30 14:09:40;;;;;;;;;;;;;;;;;;5074005;28;892;-71
2023/07/30 14:12:05;;;;;;;;;;;;;;;;;;5072458;28;853;-71
2023/07/30 14:14:31;;;;;;;;;;;;;;;;;;5073298;28;1959;-71
2023/07/30 14:16:56;;;;;;;;;;;;;;;;;;5073115;28;1226;-70
2023/07/30 14:19:22;;;;;;;;;;;;;;;;;;5073287;28;907;-70
2023/07/30 14:21:50;;;;;;;;;;;;;;;;;;5072170;28;924;-70
2023/07/30 14:24:15;;;;;;;;;;;;;;;;;;5073479;28;853;-71
2023/07/30 14:26:41;;;;;;;;;;;;;;;;;;5073093;28;1297;-70
2023/07/30 14:29:06;;;;;;;;;;;;;;;;;;5072071;28;1179;-70
2023/07/30 14:31:31;;;;;;;;;;;;;;;;;;5071367;28;1167;-70
2023/07/30 14:33:57;;;;;;;;;;;;;;;;;;5071338;28;1942;-70
2023/07/30 14:36:23;;;;;;;;;;;;;;;;;;5072079;28;821;-71
2023/07/30 14:38:48;;;;;;;;;;;;;;;;;;5071755;28;907;-70
2023/07/30 14:41:14;;;;;;;;;;;;;;;;;;5070509;28;1247;-71
2023/07/30 14:43:39;;;;;;;;;;;;;;;;;;5070230;28;872;-70
2023/07/30 14:46:04;;;;;;;;;;;;;;;;;;5072136;28;805;-70
2023/07/30 14:48:29;;;;;;;;;;;;;;;;;;5071023;28;863;-69
2023/07/30 14:50:55;;;;;;;;;;;;;;;;;;5071661;28;848;-70
2023/07/30 14:53:20;;;;;;;;;;;;;;;;;;5053330;28;1995;-70
2023/07/30 14:55:45;;;;;;;;;;;;;;;;;;5070440;28;1296;-70
2023/07/30 14:58:11;;;;;;;;;;;;;;;;;;5073187;28;1214;-69
2023/07/30 15:00:37;;;;;;;;;;;;;;;;;;5070341;28;1414;-69
2023/07/30 15:03:02;;;;;;;;;;;;;;;;;;5090309;28;1293;-69
2023/07/30 15:05:27;;;;;;;;;;;;;;;;;;5092641;28;943;-70
2023/07/30 15:07:53;;;;;;;;;;;;;;;;;;5088445;28;1211;-70
2023/07/30 15:10:18;;;;;;;;;;;;;;;;;;5087809;28;1271;-70
2023/07/30 15:12:43;;;;;;;;;;;;;;;;;;5084648;28;1111;-71
2023/07/30 15:15:09;;;;;;;;;;;;;;;;;;5083718;28;1963;-70
2023/07/30 15:17:35;;;;;;;;;;;;;;;;;;5083004;28;1214;-69
2023/07/30 15:20:00;;;;;;;;;;;;;;;;;;5081590;28;1145;-70
2023/07/30 15:22:25;;;;;;;;;;;;;;;;;;5080144;28;1143;-71
2023/07/30 15:24:50;;;;;;;;;;;;;;;;;;5058044;28;1224;-68
2023/07/30 15:27:15;;;;;;;;;;;;;;;;;;5071068;28;1235;-69
2023/07/30 15:29:41;;;;;;;;;;;;;;;;;;5070928;28;875;-70
2023/07/30 15:32:06;;;;;;;;;;;;;;;;;;5071502;28;801;-71
2023/07/30 15:34:31;;;;;;;;;;;;;;;;;;5072354;28;1973;-69
2023/07/30 15:36:59;;;;;;;;;;;;;;;;;;5072570;28;927;-68
2023/07/30 15:39:25;;;;;;;;;;;;;;;;;;5070945;28;888;-71
2023/07/30 15:41:50;;;;;;;;;;;;;;;;;;5070921;28;817;-70
2023/07/30 15:44:15;;;;;;;;;;;;;;;;;;5071754;28;821;-71
2023/07/30 15:46:43;;;;;;;;;;;;;;;;;;5071873;28;769;-72
2023/07/30 15:49:08;;;;;;;;;;;;;;;;;;5072548;28;1030;-71
2023/07/30 15:51:34;;;;;;;;;;;;;;;;;;5072473;28;968;-72
2023/07/30 15:53:59;;;;;;;;;;;;;;;;;;5070878;28;1967;-70
2023/07/30 15:56:24;;;;;;;;;;;;;;;;;;5071019;28;844;-71
2023/07/30 15:58:50;;;;;;;;;;;;;;;;;;5053970;28;1188;-69
2023/07/30 16:01:15;;;;;;;;;;;;;;;;;;5072142;28;1010;-73
2023/07/30 16:03:40;;;;;;;;;;;;;;;;;;5071239;28;852;-73
2023/07/30 16:06:06;;;;;;;;;;;;;;;;;;5069294;28;813;-73
2023/07/30 16:08:32;;;;;;;;;;;;;;;;;;5070567;28;1377;-73
2023/07/30 16:11:04;;;;;;;;;;;;;;;;;;5071297;28;836;-72
2023/07/30 16:13:30;;;;;;;;;;;;;;;;;;5071314;28;1957;-73
2023/07/30 16:15:55;;;;;;;;;;;;;;;;;;5070426;28;1359;-73
2023/07/30 16:18:21;;;;;;;;;;;;;;;;;;5071841;28;812;-72
2023/07/30 16:20:46;;;;;;;;;;;;;;;;;;5075373;28;829;-72
2023/07/30 16:23:11;;;;;;;;;;;;;;;;;;5075749;28;837;-73
2023/07/30 16:25:36;;;;;;;;;;;;;;;;;;5074787;28;849;-72
2023/07/30 16:28:02;;;;;;;;;;;;;;;;;;5074591;28;1301;-72
2023/07/30 16:30:27;;;;;;;;;;;;;;;;;;5074497;28;872;-72
2023/07/30 16:32:52;;;;;;;;;;;;;;;;;;5074394;28;928;-73
2023/07/30 16:35:18;;;;;;;;;;;;;;;;;;5074798;28;1906;-72
2023/07/30 16:37:44;;;;;;;;;;;;;;;;;;5073523;28;864;-72
2023/07/30 16:40:10;;;;;;;;;;;;;;;;;;5075078;28;880;-73
2023/07/30 16:42:35;;;;;;;;;;;;;;;;;;5073038;28;1412;-72
2023/07/30 16:45:00;;;;;;;;;;;;;;;;;;5074290;28;1007;-72
2023/07/30 16:47:25;;;;;;;;;;;;;;;;;;5072942;28;971;-72
2023/07/30 16:49:51;;;;;;;;;;;;;;;;;;5072471;28;1238;-72
2023/07/30 16:52:16;;;;;;;;;;;;;;;;;;5074123;28;848;-72
2023/07/30 16:54:41;;;;;;;;;;;;;;;;;;5073437;28;1897;-73
2023/07/30 16:57:06;;;;;;;;;;;;;;;;;;5074186;28;893;-72
2023/07/30 16:59:32;;;;;;;;;;;;;;;;;;5073828;28;1016;-72
2023/07/30 17:01:57;;;;;;;;;;;;;;;;;;5073538;28;978;-73
2023/07/30 17:04:22;;;;;;;;;;;;;;;;;;5072112;28;863;-72